Time,TemperatureF,DewpointF,PressureIn,WindDirection,WindDirectionDegrees,WindSpeedMPH,WindSpeedGustMPH,Humidity,HourlyPrecipIn,Conditions,Clouds,dailyrainin,SoftwareType,DateUTC
2013-01-26 00:03:00,16.6,8.8,30.28,NW,322,4.9,8.1,71,0.00,CLR,,0.00,WeatherDisplay:10.37,2013-01-26 06:03:00,
2013-01-26 00:08:00,16.5,8.7,30.28,WNW,298,4.4,6.9,71,0.00,CLR,,0.00,WeatherDisplay:10.37,2013-01-26 06:08:00,
2013-01-26 00:13:00,16.3,8.5,30.28,NW,319,6.6,9.2,71,0.00,CLR,,0.00,WeatherDisplay:10.37,2013-01-26 06:13:00,
2013-01-26 00:18:00,16.1,8.7,30.28,NW,319,7.2,9.2,72,0.00,CLR,,0.00,WeatherDisplay:10.37,2013-01-26 06:18:00,
2013-01-26 00:23:00,16.0,8.6,30.28,NW,316,4.9,10.4,72,0.00,CLR,,0.00,WeatherDisplay:10.37,2013-01-26 06:23:00,
2013-01-26 00:28:00,15.9,8.5,30.28,WNW,299,5.6,9.2,72,0.00,CLR,,0.00,WeatherDisplay:10.37,2013-01-26 06:28:00,
2013-01-26 00:33:00,15.8,8.4,30.27,WNW,288,5.8,11.5,72,0.00,CLR,,0.00,WeatherDisplay:10.37,2013-01-26 06:33:00,
2013-01-26 00:38:00,15.6,8.2,30.28,NW,312,5.5,8.1,72,0.00,CLR,,0.00,WeatherDisplay:10.37,2013-01-26 06:38:00,
2013-01-26 00:43:00,15.5,8.4,30.28,NW,304,5.4,9.2,73,0.00,CLR,,0.00,WeatherDisplay:10.37,2013-01-26 06:43:00,
2013-01-26 00:48:00,15.4,8.3,30.28,NW,314,7.0,10.4,73,0.00,CLR,,0.00,WeatherDisplay:10.37,2013-01-26 06:48:00,
2013-01-26 00:53:00,15.4,8.3,30.28,NW,319,5.2,8.1,73,0.00,CLR,,0.00,WeatherDisplay:10.37,2013-01-26 06:53:00,
2013-01-26 00:58:00,15.1,8.3,30.28,NW,316,3.7,5.8,74,0.00,CLR,,0.00,WeatherDisplay:10.37,2013-01-26 06:58:00,
2013-01-26 01:03:00,14.9,8.1,30.28,NNW,328,4.2,6.9,74,0.00,CLR,,0.00,WeatherDisplay:10.37,2013-01-26 07:03:00,
2013-01-26 01:08:00,14.7,8.2,30.29,NW,304,5.9,11.5,75,0.00,CLR,,0.00,WeatherDisplay:10.37,2013-01-26 07:08:00,
2013-01-26 01:13:00,14.6,8.1,30.28,NE,43,3.4,5.0,75,0.00,CLR,,0.00,WeatherDisplay:10.37,2013-01-26 07:13:00,
2013-01-26 01:18:00,14.6,8.1,30.28,NE,37,3.0,4.6,75,0.00,CLR,,0.00,WeatherDisplay:10.37,2013-01-26 07:18:00,
2013-01-26 01:23:00,14.7,8.2,30.28,NNW,338,3.3,4.6,75,0.00,CLR,,0.00,WeatherDisplay:10.37,2013-01-26 07:23:00,
2013-01-26 01:28:00,14.7,7.9,30.28,NE,43,6.1,8.1,74,0.00,CLR,,0.00,WeatherDisplay:10.37,2013-01-26 07:28:00,
2013-01-26 01:33:00,14.8,8.0,30.28,NNE,28,4.8,6.9,74,0.00,CLR,,0.00,WeatherDisplay:10.37,2013-01-26 07:33:00,
2013-01-26 01:38:00,14.6,7.8,30.28,NW,315,3.4,6.9,74,0.00,CLR,,0.00,WeatherDisplay:10.37,2013-01-26 07:38:00,
2013-01-26 01:43:00,14.4,7.9,30.29,North,9,3.1,4.6,75,0.00,CLR,,0.00,WeatherDisplay:10.37,2013-01-26 07:43:00,
2013-01-26 01:48:00,14.2,7.7,30.30,NNW,328,3.2,4.6,75,0.00,CLR,,0.00,WeatherDisplay:10.37,2013-01-26 07:48:00,
2013-01-26 01:53:00,14.0,7.8,30.29,NW,321,3.1,3.5,76,0.00,CLR,,0.00,WeatherDisplay:10.37,2013-01-26 07:53:00,
2013-01-26 01:58:00,13.9,7.7,30.29,NNW,346,3.7,5.8,76,0.00,CLR,,0.00,WeatherDisplay:10.37,2013-01-26 07:58:00,
2013-01-26 02:04:00,13.8,7.6,30.30,NNW,328,2.9,4.0,76,0.00,CLR,,0.00,WeatherDisplay:10.37,2013-01-26 08:04:00,
2013-01-26 02:09:00,13.7,7.5,30.30,NNW,335,3.0,4.6,76,0.00,CLR,,0.00,WeatherDisplay:10.37,2013-01-26 08:09:00,
2013-01-26 02:14:00,13.4,7.5,30.30,NNE,32,3.8,5.8,77,0.00,CLR,,0.00,WeatherDisplay:10.37,2013-01-26 08:14:00,
2013-01-26 02:19:00,13.3,7.7,30.30,NW,320,3.4,4.6,78,0.00,CLR,,0.00,WeatherDisplay:10.37,2013-01-26 08:19:00,
2013-01-26 02:24:00,13.2,7.6,30.31,NW,320,3.8,6.9,78,0.00,CLR,,0.00,WeatherDisplay:10.37,2013-01-26 08:24:00,
2013-01-26 02:29:00,13.2,7.6,30.31,NW,316,4.8,6.9,78,0.00,CLR,,0.00,WeatherDisplay:10.37,2013-01-26 08:29:00,
2013-01-26 02:34:00,13.0,7.4,30.31,NW,315,5.3,9.2,78,0.00,CLR,,0.00,WeatherDisplay:10.37,2013-01-26 08:34:00,
2013-01-26 02:39:00,13.0,7.4,30.31,NNW,327,3.7,4.6,78,0.00,CLR,,0.00,WeatherDisplay:10.37,2013-01-26 08:39:00,
2013-01-26 02:44:00,12.9,7.3,30.31,NW,311,5.1,6.9,78,0.00,CLR,,0.00,WeatherDisplay:10.37,2013-01-26 08:44:00,
2013-01-26 02:49:00,12.8,7.2,30.31,NW,320,4.1,6.9,78,0.00,CLR,,0.00,WeatherDisplay:10.37,2013-01-26 08:49:00,
2013-01-26 02:54:00,12.8,7.2,30.31,NNW,339,4.1,5.8,78,0.00,CLR,,0.00,WeatherDisplay:10.37,2013-01-26 08:54:00,
2013-01-26 02:59:00,12.7,7.1,30.31,NW,318,4.3,5.0,78,0.00,CLR,,0.00,WeatherDisplay:10.37,2013-01-26 08:59:00,
2013-01-26 03:04:00,12.6,7.0,30.32,NW,319,3.5,6.9,78,0.00,,,0.00,WeatherDisplay:10.37,2013-01-26 09:04:00,
2013-01-26 03:09:00,12.4,7.1,30.32,NNE,22,3.6,6.9,79,0.00,,,0.00,WeatherDisplay:10.37,2013-01-26 09:09:00,
2013-01-26 03:14:00,12.2,6.9,30.32,NNW,330,2.9,4.6,79,0.00,,,0.00,WeatherDisplay:10.37,2013-01-26 09:14:00,
2013-01-26 03:19:00,12.0,7.0,30.32,NW,312,3.7,5.8,80,0.00,,,0.00,WeatherDisplay:10.37,2013-01-26 09:19:00,
2013-01-26 03:24:00,11.7,6.7,30.32,NW,315,3.4,4.0,80,0.00,,,0.00,WeatherDisplay:10.37,2013-01-26 09:24:00,
2013-01-26 03:29:00,11.6,6.6,30.32,North,356,3.1,4.0,80,0.00,,,0.00,WeatherDisplay:10.37,2013-01-26 09:29:00,
2013-01-26 03:34:00,11.7,6.7,30.32,NW,324,2.4,3.5,80,0.00,,,0.00,WeatherDisplay:10.37,2013-01-26 09:34:00,
2013-01-26 03:39:00,11.6,6.6,30.32,NNE,27,2.9,3.5,80,0.00,,,0.00,WeatherDisplay:10.37,2013-01-26 09:39:00,
2013-01-26 03:44:00,11.8,6.8,30.32,NNE,25,4.3,6.0,80,0.00,,,0.00,WeatherDisplay:10.37,2013-01-26 09:44:00,
2013-01-26 03:49:00,12.0,6.7,30.32,North,4,4.5,5.8,79,0.00,,,0.00,WeatherDisplay:10.37,2013-01-26 09:49:00,
2013-01-26 03:54:00,12.1,6.8,30.32,NW,316,3.8,4.6,79,0.00,,,0.00,WeatherDisplay:10.37,2013-01-26 09:54:00,
2013-01-26 03:59:00,12.1,6.8,30.33,NE,53,2.4,3.5,79,0.00,,,0.00,WeatherDisplay:10.37,2013-01-26 09:59:00,
2013-01-26 04:04:00,11.9,6.6,30.33,NW,320,1.9,3.5,79,0.00,CLR,,0.00,WeatherDisplay:10.37,2013-01-26 10:04:00,
2013-01-26 04:09:00,11.8,6.5,30.33,NW,318,1.9,3.5,79,0.00,CLR,,0.00,WeatherDisplay:10.37,2013-01-26 10:09:00,
2013-01-26 04:14:00,11.5,6.5,30.33,NW,326,1.9,3.5,80,0.00,CLR,,0.00,WeatherDisplay:10.37,2013-01-26 10:14:00,
2013-01-26 04:19:00,11.3,6.3,30.33,NNE,22,2.9,3.5,80,0.00,CLR,,0.00,WeatherDisplay:10.37,2013-01-26 10:19:00,
2013-01-26 04:24:00,11.5,6.5,30.33,North,349,2.3,3.5,80,0.00,CLR,,0.00,WeatherDisplay:10.37,2013-01-26 10:24:00,
2013-01-26 04:29:00,11.4,6.4,30.34,NNW,335,1.4,2.3,80,0.00,CLR,,0.00,WeatherDisplay:10.37,2013-01-26 10:29:00,
2013-01-26 04:34:00,11.2,6.2,30.34,NW,318,1.6,3.5,80,0.00,CLR,,0.00,WeatherDisplay:10.37,2013-01-26 10:34:00,
2013-01-26 04:39:00,10.8,5.8,30.34,WNW,290,1.1,2.3,80,0.00,CLR,,0.00,WeatherDisplay:10.37,2013-01-26 10:39:00,
2013-01-26 04:44:00,10.1,5.2,30.34,WNW,291,0.4,1.1,80,0.00,CLR,,0.00,WeatherDisplay:10.37,2013-01-26 10:44:00,
2013-01-26 04:49:00,9.6,4.9,30.34,WNW,290,1.0,2.3,81,0.00,CLR,,0.00,WeatherDisplay:10.37,2013-01-26 10:49:00,
2013-01-26 04:54:00,9.3,4.9,30.34,WNW,291,0.4,1.1,82,0.00,CLR,,0.00,WeatherDisplay:10.37,2013-01-26 10:54:00,
2013-01-26 05:00:00,9.3,5.2,30.34,WNW,290,1.0,1.1,83,0.00,CLR,,0.00,WeatherDisplay:10.37,2013-01-26 11:00:00,
2013-01-26 05:05:00,9.5,5.4,30.35,WNW,290,2.0,3.5,83,0.00,CLR,,0.00,WeatherDisplay:10.37,2013-01-26 11:05:00,
2013-01-26 05:10:00,9.4,5.3,30.35,NW,308,2.1,3.5,83,0.00,CLR,,0.00,WeatherDisplay:10.37,2013-01-26 11:10:00,
2013-01-26 05:15:00,9.6,5.5,30.35,NW,304,2.1,3.5,83,0.00,CLR,,0.00,WeatherDisplay:10.37,2013-01-26 11:15:00,
2013-01-26 05:20:00,9.4,5.3,30.35,WNW,301,3.0,3.5,83,0.00,CLR,,0.00,WeatherDisplay:10.37,2013-01-26 11:20:00,
2013-01-26 05:25:00,9.4,5.3,30.35,WNW,302,3.7,5.0,83,0.00,CLR,,0.00,WeatherDisplay:10.37,2013-01-26 11:25:00,
2013-01-26 05:30:00,9.8,5.9,30.36,NW,305,3.2,3.5,84,0.00,CLR,,0.00,WeatherDisplay:10.37,2013-01-26 11:30:00,
2013-01-26 05:35:00,9.9,5.8,30.36,NW,307,3.2,3.5,83,0.00,CLR,,0.00,WeatherDisplay:10.37,2013-01-26 11:35:00,
2013-01-26 05:40:00,10.0,5.9,30.36,NW,319,2.3,3.5,83,0.00,CLR,,0.00,WeatherDisplay:10.37,2013-01-26 11:40:00,
2013-01-26 05:45:00,9.9,5.8,30.37,NW,308,2.0,2.3,83,0.00,CLR,,0.00,WeatherDisplay:10.37,2013-01-26 11:45:00,
2013-01-26 05:50:00,9.5,5.1,30.37,NW,308,0.0,0.0,82,0.00,CLR,,0.00,WeatherDisplay:10.37,2013-01-26 11:50:00,
2013-01-26 05:55:00,9.1,4.7,30.37,NW,307,0.0,0.0,82,0.00,CLR,,0.00,WeatherDisplay:10.37,2013-01-26 11:55:00,
2013-01-26 06:00:00,8.8,5.0,30.37,West,274,1.2,2.0,84,0.00,CLR,,0.00,WeatherDisplay:10.37,2013-01-26 12:00:00,
2013-01-26 06:05:00,8.9,5.1,30.37,WNW,295,2.0,2.3,84,0.00,CLR,,0.00,WeatherDisplay:10.37,2013-01-26 12:05:00,
2013-01-26 06:10:00,8.9,4.8,30.38,WNW,287,2.0,2.3,83,0.00,CLR,,0.00,WeatherDisplay:10.37,2013-01-26 12:10:00,
2013-01-26 06:15:00,8.9,5.1,30.38,NW,310,2.3,3.5,84,0.00,CLR,,0.00,WeatherDisplay:10.37,2013-01-26 12:15:00,
2013-01-26 06:20:00,8.9,5.1,30.38,NW,315,1.9,2.3,84,0.00,CLR,,0.00,WeatherDisplay:10.37,2013-01-26 12:20:00,
2013-01-26 06:25:00,8.9,5.1,30.38,NW,310,2.0,2.0,84,0.00,CLR,,0.00,WeatherDisplay:10.37,2013-01-26 12:25:00,
2013-01-26 06:30:00,8.7,4.9,30.38,NW,309,1.0,2.0,84,0.00,CLR,,0.00,WeatherDisplay:10.37,2013-01-26 12:30:00,
2013-01-26 06:35:00,8.5,4.6,30.38,NW,308,0.0,1.0,84,0.00,CLR,,0.00,WeatherDisplay:10.37,2013-01-26 12:35:00,
2013-01-26 06:40:00,8.3,4.5,30.38,NW,308,1.0,1.0,84,0.00,CLR,,0.00,WeatherDisplay:10.37,2013-01-26 12:40:00,
2013-01-26 06:45:00,8.3,4.7,30.38,NW,307,0.0,0.0,85,0.00,CLR,,0.00,WeatherDisplay:10.37,2013-01-26 12:45:00,
2013-01-26 06:50:00,8.2,4.4,30.38,NW,304,1.4,2.3,84,0.00,CLR,,0.00,WeatherDisplay:10.37,2013-01-26 12:50:00,
2013-01-26 06:55:00,8.1,4.3,30.38,NW,318,2.2,3.5,84,0.00,CLR,,0.00,WeatherDisplay:10.37,2013-01-26 12:55:00,
2013-01-26 07:00:00,8.5,4.9,30.38,NW,316,2.0,2.3,85,0.00,CLR,,0.00,WeatherDisplay:10.37,2013-01-26 13:00:00,
2013-01-26 07:05:00,8.6,4.8,30.38,NW,315,1.6,2.3,84,0.00,CLR,,0.00,WeatherDisplay:10.37,2013-01-26 13:05:00,
2013-01-26 07:10:00,8.4,4.5,30.38,NW,315,2.0,2.0,84,0.00,CLR,,0.00,WeatherDisplay:10.37,2013-01-26 13:10:00,
2013-01-26 07:15:00,8.2,4.4,30.39,NW,308,0.8,1.1,84,0.00,CLR,,0.00,WeatherDisplay:10.37,2013-01-26 13:15:00,
2013-01-26 07:20:00,8.0,4.2,30.39,NW,307,0.0,0.0,84,0.00,CLR,,0.00,WeatherDisplay:10.37,2013-01-26 13:20:00,
2013-01-26 07:25:00,7.8,4.0,30.39,NW,308,0.0,1.1,84,0.00,CLR,,0.00,WeatherDisplay:10.37,2013-01-26 13:25:00,
2013-01-26 07:30:00,8.1,4.8,30.39,NW,308,0.7,1.1,86,0.00,CLR,,0.00,WeatherDisplay:10.37,2013-01-26 13:30:00,
2013-01-26 07:35:00,8.5,5.2,30.39,NNW,340,1.6,2.3,86,0.00,CLR,,0.00,WeatherDisplay:10.37,2013-01-26 13:35:00,
2013-01-26 07:40:00,9.0,5.4,30.40,NNW,327,1.4,2.3,85,0.00,CLR,,0.00,WeatherDisplay:10.37,2013-01-26 13:40:00,
2013-01-26 07:45:00,9.1,5.2,30.40,NNE,30,1.2,2.3,84,0.00,CLR,,0.00,WeatherDisplay:10.37,2013-01-26 13:45:00,
2013-01-26 07:50:00,9.3,5.4,30.40,NW,319,0.7,2.3,84,0.00,CLR,,0.00,WeatherDisplay:10.37,2013-01-26 13:50:00,
2013-01-26 07:55:00,9.5,5.6,30.40,NNW,329,0.9,2.3,84,0.00,CLR,,0.00,WeatherDisplay:10.37,2013-01-26 13:55:00,
2013-01-26 08:00:00,9.8,5.9,30.41,North,351,0.4,1.1,84,0.00,CLR,,0.00,WeatherDisplay:10.37,2013-01-26 14:00:00,
2013-01-26 08:05:00,10.1,6.2,30.41,NE,39,0.1,1.1,84,0.00,CLR,,0.00,WeatherDisplay:10.37,2013-01-26 14:05:00,
2013-01-26 08:10:00,10.5,6.6,30.41,WNW,302,1.2,3.5,84,0.00,CLR,,0.00,WeatherDisplay:10.37,2013-01-26 14:10:00,
2013-01-26 08:15:00,11.0,7.1,30.41,NNE,15,0.9,1.1,84,0.00,CLR,,0.00,WeatherDisplay:10.37,2013-01-26 14:15:00,
2013-01-26 08:21:00,11.3,6.9,30.41,NNE,23,0.9,1.1,82,0.00,CLR,,0.00,WeatherDisplay:10.37,2013-01-26 14:21:00,
2013-01-26 08:26:00,11.6,6.9,30.42,NNE,15,2.2,3.5,81,0.00,CLR,,0.00,WeatherDisplay:10.37,2013-01-26 14:26:00,
2013-01-26 08:30:00,11.9,7.2,30.42,NNW,335,2.3,3.5,81,0.00,CLR,,0.00,WeatherDisplay:10.37,2013-01-26 14:30:00,
2013-01-26 08:35:00,12.2,7.5,30.42,NNE,22,1.5,2.3,81,0.00,CLR,,0.00,WeatherDisplay:10.37,2013-01-26 14:35:00,
2013-01-26 08:41:00,12.8,8.1,30.42,NNE,23,1.7,4.0,81,0.00,CLR,,0.00,WeatherDisplay:10.37,2013-01-26 14:41:00,
2013-01-26 08:46:00,13.1,8.1,30.42,NNE,23,0.4,2.3,80,0.00,CLR,,0.00,WeatherDisplay:10.37,2013-01-26 14:46:00,
2013-01-26 08:51:00,13.6,8.3,30.42,NNE,18,1.5,2.0,79,0.00,CLR,,0.00,WeatherDisplay:10.37,2013-01-26 14:51:00,
2013-01-26 08:56:00,14.0,8.7,30.42,North,11,0.5,2.3,79,0.00,CLR,,0.00,WeatherDisplay:10.37,2013-01-26 14:56:00,
2013-01-26 09:01:00,14.4,8.8,30.42,NE,49,1.2,2.3,78,0.00,CLR,,0.00,WeatherDisplay:10.37,2013-01-26 15:01:00,
2013-01-26 09:06:00,14.9,9.0,30.42,NNE,17,1.0,1.1,77,0.00,CLR,,0.00,WeatherDisplay:10.37,2013-01-26 15:06:00,
2013-01-26 09:11:00,15.2,9.0,30.42,ENE,68,1.7,3.5,76,0.00,CLR,,0.00,WeatherDisplay:10.37,2013-01-26 15:11:00,
2013-01-26 09:16:00,15.6,9.1,30.42,ENE,64,3.0,3.5,75,0.00,CLR,,0.00,WeatherDisplay:10.37,2013-01-26 15:16:00,
2013-01-26 09:21:00,15.8,9.6,30.42,ENE,74,3.1,4.6,76,0.00,CLR,,0.00,WeatherDisplay:10.37,2013-01-26 15:21:00,
2013-01-26 09:26:00,16.2,9.4,30.42,NE,43,3.2,4.6,74,0.00,CLR,,0.00,WeatherDisplay:10.37,2013-01-26 15:26:00,
2013-01-26 09:31:00,16.7,9.5,30.42,NE,56,5.3,6.9,73,0.00,CLR,,0.00,WeatherDisplay:10.37,2013-01-26 15:31:00,
2013-01-26 09:36:00,16.9,9.4,30.42,ENE,67,6.4,8.1,72,0.00,CLR,,0.00,WeatherDisplay:10.37,2013-01-26 15:36:00,
2013-01-26 09:41:00,16.9,9.4,30.42,ENE,77,6.1,8.1,72,0.00,CLR,,0.00,WeatherDisplay:10.37,2013-01-26 15:41:00,
2013-01-26 09:46:00,17.2,9.7,30.42,ESE,117,3.6,5.8,72,0.00,CLR,,0.00,WeatherDisplay:10.37,2013-01-26 15:46:00,
2013-01-26 09:51:00,17.8,10.3,30.43,ENE,58,4.0,6.9,72,0.00,CLR,,0.00,WeatherDisplay:10.37,2013-01-26 15:51:00,
2013-01-26 09:56:00,17.9,9.8,30.43,ENE,72,3.4,4.6,70,0.00,CLR,,0.00,WeatherDisplay:10.37,2013-01-26 15:56:00,
2013-01-26 10:01:00,18.2,10.1,30.43,ENE,60,4.0,8.1,70,0.00,CLR,,0.00,WeatherDisplay:10.37,2013-01-26 16:01:00,
2013-01-26 10:06:00,18.5,10.3,30.43,ENE,58,3.2,5.0,70,0.00,CLR,,0.00,WeatherDisplay:10.37,2013-01-26 16:06:00,
2013-01-26 10:11:00,18.6,9.8,30.43,NE,53,4.2,8.1,68,0.00,CLR,,0.00,WeatherDisplay:10.37,2013-01-26 16:11:00,
2013-01-26 10:16:00,19.2,10.7,30.44,East,83,3.8,4.6,69,0.00,CLR,,0.00,WeatherDisplay:10.37,2013-01-26 16:16:00,
2013-01-26 10:21:00,19.4,10.6,30.44,ESE,106,3.5,5.8,68,0.00,CLR,,0.00,WeatherDisplay:10.37,2013-01-26 16:21:00,
2013-01-26 10:26:00,19.6,10.1,30.44,SE,125,2.1,3.5,66,0.00,CLR,,0.00,WeatherDisplay:10.37,2013-01-26 16:26:00,
2013-01-26 10:31:00,20.0,10.8,30.44,NE,47,2.0,3.5,67,0.00,CLR,,0.00,WeatherDisplay:10.37,2013-01-26 16:31:00,
2013-01-26 10:36:00,20.0,10.5,30.44,ENE,70,4.1,6.0,66,0.00,CLR,,0.00,WeatherDisplay:10.37,2013-01-26 16:36:00,
2013-01-26 10:41:00,20.2,10.6,30.44,ESE,112,1.4,2.3,66,0.00,CLR,,0.00,WeatherDisplay:10.37,2013-01-26 16:41:00,
2013-01-26 10:46:00,20.8,11.2,30.44,North,349,1.4,3.5,66,0.00,CLR,,0.00,WeatherDisplay:10.37,2013-01-26 16:46:00,
2013-01-26 10:51:00,21.1,11.5,30.44,ENE,72,1.5,3.5,66,0.00,CLR,,0.00,WeatherDisplay:10.37,2013-01-26 16:51:00,
2013-01-26 10:56:00,21.6,11.6,30.44,SSE,156,0.9,3.0,65,0.00,CLR,,0.00,WeatherDisplay:10.37,2013-01-26 16:56:00,
2013-01-26 11:01:00,21.9,11.2,30.44,SE,141,1.9,5.8,63,0.00,CLR,,0.00,WeatherDisplay:10.37,2013-01-26 17:01:00,
2013-01-26 11:06:00,21.8,10.4,30.44,ESE,114,0.8,3.5,61,0.00,CLR,,0.00,WeatherDisplay:10.37,2013-01-26 17:06:00,
2013-01-26 11:12:00,22.1,10.7,30.44,NW,316,1.2,1.2,61,0.00,CLR,,0.00,WeatherDisplay:10.37,2013-01-26 17:12:00,
2013-01-26 11:17:00,22.1,10.7,30.44,ENE,76,0.9,2.3,61,0.00,CLR,,0.00,WeatherDisplay:10.37,2013-01-26 17:17:00,
2013-01-26 11:22:00,22.6,11.2,30.43,ESE,120,2.5,3.5,61,0.00,CLR,,0.00,WeatherDisplay:10.37,2013-01-26 17:22:00,
2013-01-26 11:27:00,23.2,11.7,30.43,SSE,167,2.3,3.5,61,0.00,CLR,,0.00,WeatherDisplay:10.37,2013-01-26 17:27:00,
2013-01-26 11:32:00,23.8,11.5,30.42,South,179,0.6,2.3,59,0.00,CLR,,0.00,WeatherDisplay:10.37,2013-01-26 17:32:00,
2013-01-26 11:37:00,24.0,11.3,30.42,ENE,77,2.5,3.5,58,0.00,CLR,,0.00,WeatherDisplay:10.37,2013-01-26 17:37:00,
2013-01-26 11:42:00,24.0,11.7,30.42,SE,135,2.6,3.5,59,0.00,CLR,,0.00,WeatherDisplay:10.37,2013-01-26 17:42:00,
2013-01-26 11:47:00,24.5,12.2,30.42,SE,136,4.6,5.8,59,0.00,CLR,,0.00,WeatherDisplay:10.37,2013-01-26 17:47:00,
2013-01-26 11:52:00,24.5,11.4,30.41,ESE,110,3.3,5.8,57,0.00,CLR,,0.00,WeatherDisplay:10.37,2013-01-26 17:52:00,
2013-01-26 11:57:00,24.5,11.8,30.41,SE,128,3.1,3.5,58,0.00,CLR,,0.00,WeatherDisplay:10.37,2013-01-26 17:57:00,
2013-01-26 12:02:00,24.5,11.4,30.41,ESE,113,0.0,1.1,57,0.00,CLR,,0.00,WeatherDisplay:10.37,2013-01-26 18:02:00,
2013-01-26 12:07:00,25.1,12.0,30.41,ESE,104,3.9,5.0,57,0.00,CLR,,0.00,WeatherDisplay:10.37,2013-01-26 18:07:00,
2013-01-26 12:12:00,24.8,11.7,30.41,SSE,153,4.0,6.9,57,0.00,CLR,,0.00,WeatherDisplay:10.37,2013-01-26 18:12:00,
2013-01-26 12:17:00,25.1,12.4,30.41,East,100,0.6,2.3,58,0.00,CLR,,0.00,WeatherDisplay:10.37,2013-01-26 18:17:00,
2013-01-26 12:22:00,25.6,11.7,30.41,ESE,110,3.1,4.6,55,0.00,CLR,,0.00,WeatherDisplay:10.37,2013-01-26 18:22:00,
2013-01-26 12:27:00,25.5,11.1,30.41,WNW,295,1.2,2.0,54,0.00,CLR,,0.00,WeatherDisplay:10.37,2013-01-26 18:27:00,
2013-01-26 12:32:00,25.5,12.0,30.41,WSW,253,0.4,1.1,56,0.00,CLR,,0.00,WeatherDisplay:10.37,2013-01-26 18:32:00,
2013-01-26 12:37:00,26.1,12.9,30.41,ENE,74,3.0,4.6,57,0.00,CLR,,0.00,WeatherDisplay:10.37,2013-01-26 18:37:00,
2013-01-26 12:42:00,26.2,12.2,30.40,SSE,158,0.1,2.3,55,0.00,CLR,,0.00,WeatherDisplay:10.37,2013-01-26 18:42:00,
2013-01-26 12:47:00,26.7,11.8,30.40,SE,132,0.4,1.1,53,0.00,CLR,,0.00,WeatherDisplay:10.37,2013-01-26 18:47:00,
2013-01-26 12:52:00,26.4,12.0,30.40,East,100,2.5,3.5,54,0.00,CLR,,0.00,WeatherDisplay:10.37,2013-01-26 18:52:00,
2013-01-26 12:57:00,26.9,12.9,30.40,ENE,74,2.2,4.6,55,0.00,CLR,,0.00,WeatherDisplay:10.37,2013-01-26 18:57:00,
2013-01-26 13:02:00,27.0,12.5,30.40,ESE,104,4.1,5.0,54,0.00,CLR,,0.00,WeatherDisplay:10.37,2013-01-26 19:02:00,
2013-01-26 13:07:00,26.7,12.3,30.40,ESE,103,3.0,8.1,54,0.00,CLR,,0.00,WeatherDisplay:10.37,2013-01-26 19:07:00,
2013-01-26 13:12:00,27.1,13.1,30.39,SSW,205,2.7,3.0,55,0.00,CLR,,0.00,WeatherDisplay:10.37,2013-01-26 19:12:00,
2013-01-26 13:17:00,27.3,12.4,30.39,ESE,122,0.0,2.3,53,0.00,CLR,,0.00,WeatherDisplay:10.37,2013-01-26 19:17:00,
2013-01-26 13:22:00,27.7,13.2,30.39,ESE,110,3.3,6.9,54,0.00,CLR,,0.00,WeatherDisplay:10.37,2013-01-26 19:22:00,
2013-01-26 13:27:00,27.8,13.7,30.38,ESE,123,3.7,4.0,55,0.00,CLR,,0.00,WeatherDisplay:10.37,2013-01-26 19:27:00,
2013-01-26 13:32:00,28.2,14.1,30.38,East,101,3.6,5.8,55,0.00,CLR,,0.00,WeatherDisplay:10.37,2013-01-26 19:32:00,
2013-01-26 13:37:00,28.6,14.0,30.38,East,92,4.5,5.8,54,0.00,CLR,,0.00,WeatherDisplay:10.37,2013-01-26 19:37:00,
2013-01-26 13:42:00,28.4,13.9,30.38,ESE,106,1.4,3.5,54,0.00,CLR,,0.00,WeatherDisplay:10.37,2013-01-26 19:42:00,
2013-01-26 13:48:00,28.6,13.2,30.38,South,191,3.8,5.8,52,0.00,CLR,,0.00,WeatherDisplay:10.37,2013-01-26 19:48:00,
2013-01-26 13:53:00,28.7,12.8,30.37,ESE,103,3.5,5.8,51,0.00,CLR,,0.00,WeatherDisplay:10.37,2013-01-26 19:53:00,
2013-01-26 13:58:00,29.0,14.4,30.38,ESE,108,5.2,6.9,54,0.00,CLR,,0.00,WeatherDisplay:10.37,2013-01-26 19:58:00,
2013-01-26 14:03:00,29.2,13.3,30.38,South,189,3.3,5.0,51,0.00,CLR,,0.00,WeatherDisplay:10.37,2013-01-26 20:03:00,
2013-01-26 14:08:00,29.4,12.6,30.38,SW,216,1.2,4.0,49,0.00,CLR,,0.00,WeatherDisplay:10.37,2013-01-26 20:08:00,
2013-01-26 14:13:00,29.4,12.6,30.38,ESE,120,3.9,5.8,49,0.00,CLR,,0.00,WeatherDisplay:10.37,2013-01-26 20:13:00,
2013-01-26 14:18:00,29.2,13.3,30.38,East,91,4.8,8.1,51,0.00,CLR,,0.00,WeatherDisplay:10.37,2013-01-26 20:18:00,
2013-01-26 14:23:00,29.4,13.0,30.37,SE,136,0.8,9.0,50,0.00,CLR,,0.00,WeatherDisplay:10.37,2013-01-26 20:23:00,
2013-01-26 14:28:00,29.6,14.1,30.37,East,79,2.0,3.5,52,0.00,CLR,,0.00,WeatherDisplay:10.37,2013-01-26 20:28:00,
2013-01-26 14:33:00,29.6,13.2,30.37,SE,127,2.4,4.6,50,0.00,CLR,,0.00,WeatherDisplay:10.37,2013-01-26 20:33:00,
2013-01-26 14:38:00,29.8,14.3,30.37,SE,142,4.2,6.9,52,0.00,CLR,,0.00,WeatherDisplay:10.37,2013-01-26 20:38:00,
2013-01-26 14:43:00,29.7,13.3,30.36,ESE,102,3.7,5.8,50,0.00,CLR,,0.00,WeatherDisplay:10.37,2013-01-26 20:43:00,
2013-01-26 14:48:00,29.7,14.2,30.36,SE,125,4.3,5.8,52,0.00,CLR,,0.00,WeatherDisplay:10.37,2013-01-26 20:48:00,
2013-01-26 14:53:00,30.0,13.6,30.37,SE,138,3.0,5.8,50,0.00,CLR,,0.00,WeatherDisplay:10.37,2013-01-26 20:53:00,
2013-01-26 14:58:00,30.5,14.0,30.37,SSE,148,3.6,4.6,50,0.00,CLR,,0.00,WeatherDisplay:10.37,2013-01-26 20:58:00,
2013-01-26 15:03:00,30.7,13.3,30.37,SE,136,5.2,8.0,48,0.00,CLR,,0.00,WeatherDisplay:10.37,2013-01-26 21:03:00,
2013-01-26 15:08:00,30.5,13.1,30.37,SSE,150,3.3,4.0,48,0.00,CLR,,0.00,WeatherDisplay:10.37,2013-01-26 21:08:00,
2013-01-26 15:13:00,30.5,14.0,30.37,ESE,114,3.3,3.5,50,0.00,CLR,,0.00,WeatherDisplay:10.37,2013-01-26 21:13:00,
2013-01-26 15:18:00,30.9,14.9,30.37,SE,132,2.9,3.5,51,0.00,CLR,,0.00,WeatherDisplay:10.37,2013-01-26 21:18:00,
2013-01-26 15:23:00,30.8,14.3,30.37,ENE,74,2.3,5.0,50,0.00,CLR,,0.00,WeatherDisplay:10.37,2013-01-26 21:23:00,
2013-01-26 15:28:00,30.5,14.0,30.37,SSE,166,2.6,3.5,50,0.00,CLR,,0.00,WeatherDisplay:10.37,2013-01-26 21:28:00,
2013-01-26 15:33:00,31.1,14.6,30.37,ENE,77,1.3,2.3,50,0.00,CLR,,0.00,WeatherDisplay:10.37,2013-01-26 21:33:00,
2013-01-26 15:38:00,31.2,14.2,30.36,SE,129,2.0,2.3,49,0.00,CLR,,0.00,WeatherDisplay:10.37,2013-01-26 21:38:00,
2013-01-26 15:43:00,31.1,14.6,30.35,SE,142,3.9,5.8,50,0.00,CLR,,0.00,WeatherDisplay:10.37,2013-01-26 21:43:00,
2013-01-26 15:48:00,30.9,14.9,30.35,SE,131,6.5,8.1,51,0.00,CLR,,0.00,WeatherDisplay:10.37,2013-01-26 21:48:00,
2013-01-26 15:53:00,30.8,15.2,30.35,SE,125,5.3,9.2,52,0.00,CLR,,0.00,WeatherDisplay:10.37,2013-01-26 21:53:00,
2013-01-26 15:58:00,30.6,15.0,30.35,ESE,115,7.6,10.4,52,0.00,CLR,,0.00,WeatherDisplay:10.37,2013-01-26 21:58:00,
2013-01-26 16:03:00,30.5,14.9,30.35,ESE,118,5.5,8.1,52,0.00,CLR,,0.00,WeatherDisplay:10.37,2013-01-26 22:03:00,
2013-01-26 16:08:00,30.5,15.4,30.35,SE,141,6.6,10.4,53,0.00,CLR,,0.00,WeatherDisplay:10.37,2013-01-26 22:08:00,
2013-01-26 16:13:00,30.3,15.6,30.36,ESE,117,4.6,6.0,54,0.00,CLR,,0.00,WeatherDisplay:10.37,2013-01-26 22:13:00,
2013-01-26 16:19:00,30.3,15.6,30.36,SSE,148,5.7,8.1,54,0.00,CLR,,0.00,WeatherDisplay:10.37,2013-01-26 22:19:00,
2013-01-26 16:24:00,30.2,15.5,30.36,SE,133,4.6,6.9,54,0.00,CLR,,0.00,WeatherDisplay:10.37,2013-01-26 22:24:00,
2013-01-26 16:29:00,30.0,15.8,30.35,ESE,123,6.6,8.1,55,0.00,CLR,,0.00,WeatherDisplay:10.37,2013-01-26 22:29:00,
2013-01-26 16:34:00,29.6,15.8,30.36,SE,128,6.2,8.1,56,0.00,CLR,,0.00,WeatherDisplay:10.37,2013-01-26 22:34:00,
2013-01-26 16:39:00,29.0,16.1,30.35,SE,126,6.1,8.1,58,0.00,CLR,,0.00,WeatherDisplay:10.37,2013-01-26 22:39:00,
2013-01-26 16:44:00,28.8,16.3,30.34,SE,125,8.2,11.5,59,0.00,CLR,,0.00,WeatherDisplay:10.37,2013-01-26 22:44:00,
2013-01-26 16:49:00,28.6,16.1,30.34,ESE,116,7.6,10.4,59,0.00,CLR,,0.00,WeatherDisplay:10.37,2013-01-26 22:49:00,
2013-01-26 16:54:00,28.4,16.3,30.34,ESE,120,6.2,8.1,60,0.00,CLR,,0.00,WeatherDisplay:10.37,2013-01-26 22:54:00,
2013-01-26 16:59:00,28.4,15.9,30.35,SE,128,4.2,5.8,59,0.00,CLR,,0.00,WeatherDisplay:10.37,2013-01-26 22:59:00,
2013-01-26 17:04:00,28.4,15.5,30.36,SE,134,3.7,5.8,58,0.00,CLR,,0.00,WeatherDisplay:10.37,2013-01-26 23:04:00,
2013-01-26 17:09:00,28.3,16.2,30.36,SE,125,4.6,6.0,60,0.00,CLR,,0.00,WeatherDisplay:10.37,2013-01-26 23:09:00,
2013-01-26 17:14:00,28.2,16.1,30.35,ESE,121,5.1,5.8,60,0.00,CLR,,0.00,WeatherDisplay:10.37,2013-01-26 23:14:00,
2013-01-26 17:19:00,28.2,16.5,30.36,ESE,111,5.5,6.9,61,0.00,CLR,,0.00,WeatherDisplay:10.37,2013-01-26 23:19:00,
2013-01-26 17:24:00,28.2,16.8,30.35,ESE,113,5.2,5.8,62,0.00,CLR,,0.00,WeatherDisplay:10.37,2013-01-26 23:24:00,
2013-01-26 17:29:00,28.2,17.2,30.36,ESE,106,4.4,4.6,63,0.00,CLR,,0.00,WeatherDisplay:10.37,2013-01-26 23:29:00,
2013-01-26 17:34:00,28.2,17.2,30.36,ESE,110,4.4,6.9,63,0.00,CLR,,0.00,WeatherDisplay:10.37,2013-01-26 23:34:00,
2013-01-26 17:40:00,28.1,17.5,30.36,East,96,4.1,4.6,64,0.00,CLR,,0.00,WeatherDisplay:10.37,2013-01-26 23:40:00,
2013-01-26 17:45:00,28.0,17.0,30.35,ESE,112,5.1,6.9,63,0.00,,,0.00,WeatherDisplay:10.37,2013-01-26 23:45:00,
2013-01-26 17:50:00,27.7,17.5,30.34,ESE,105,5.0,7.0,65,0.00,,,0.00,WeatherDisplay:10.37,2013-01-26 23:50:00,
2013-01-26 17:55:00,27.4,17.2,30.35,ESE,103,4.5,5.8,65,0.00,,,0.00,WeatherDisplay:10.37,2013-01-26 23:55:00,
2013-01-26 18:00:00,27.2,17.7,30.35,ESE,107,5.0,5.0,67,0.00,,,0.00,WeatherDisplay:10.37,2013-01-27 00:00:00,
2013-01-26 18:05:00,26.8,17.6,30.35,ESE,107,2.9,3.5,68,0.00,,,0.00,WeatherDisplay:10.37,2013-01-27 00:05:00,
2013-01-26 18:10:00,26.7,17.6,30.36,SE,125,2.9,3.5,68,0.00,,,0.00,WeatherDisplay:10.37,2013-01-27 00:10:00,
2013-01-26 18:15:00,26.6,17.1,30.36,ESE,120,4.0,4.0,67,0.00,,,0.00,WeatherDisplay:10.37,2013-01-27 00:15:00,
2013-01-26 18:20:00,26.7,17.2,30.36,ESE,118,4.6,5.0,67,0.00,,,0.00,WeatherDisplay:10.37,2013-01-27 00:20:00,
2013-01-26 18:25:00,26.8,17.0,30.35,ESE,112,5.9,6.9,66,0.00,,,0.00,WeatherDisplay:10.37,2013-01-27 00:25:00,
2013-01-26 18:30:00,26.8,17.6,30.35,ESE,110,4.1,5.8,68,0.00,,,0.00,WeatherDisplay:10.37,2013-01-27 00:30:00,
2013-01-26 18:35:00,26.6,17.5,30.35,ESE,121,4.6,5.8,68,0.00,,,0.00,WeatherDisplay:10.37,2013-01-27 00:35:00,
2013-01-26 18:40:00,26.5,17.4,30.36,SE,135,3.9,4.6,68,0.00,,,0.00,WeatherDisplay:10.37,2013-01-27 00:40:00,
2013-01-26 18:45:00,26.5,17.4,30.36,ESE,117,3.3,4.0,68,0.00,,,0.00,WeatherDisplay:10.37,2013-01-27 00:45:00,
2013-01-26 18:50:00,26.3,17.5,30.36,ESE,122,4.2,5.0,69,0.00,,,0.00,WeatherDisplay:10.37,2013-01-27 00:50:00,
2013-01-26 18:55:00,26.4,17.3,30.35,ESE,116,4.4,6.0,68,0.00,,,0.00,WeatherDisplay:10.37,2013-01-27 00:55:00,
2013-01-26 19:00:00,26.3,17.8,30.35,ESE,111,5.0,5.8,70,0.00,,,0.00,WeatherDisplay:10.37,2013-01-27 01:00:00,
2013-01-26 19:05:00,26.1,18.0,30.35,ESE,116,4.1,4.6,71,0.00,,,0.00,WeatherDisplay:10.37,2013-01-27 01:05:00,
2013-01-26 19:10:00,26.3,17.8,30.36,ESE,107,4.9,5.8,70,0.00,,,0.00,WeatherDisplay:10.37,2013-01-27 01:10:00,
2013-01-26 19:15:00,26.5,17.7,30.35,ESE,111,5.3,5.8,69,0.00,,,0.00,WeatherDisplay:10.37,2013-01-27 01:15:00,
2013-01-26 19:20:00,26.6,17.8,30.36,ESE,114,5.3,6.9,69,0.00,,,0.00,WeatherDisplay:10.37,2013-01-27 01:20:00,
2013-01-26 19:25:00,26.7,17.9,30.36,ESE,118,5.5,6.9,69,0.00,,,0.00,WeatherDisplay:10.37,2013-01-27 01:25:00,
2013-01-26 19:30:00,26.7,17.6,30.36,ESE,122,5.2,6.9,68,0.00,,,0.00,WeatherDisplay:10.37,2013-01-27 01:30:00,
2013-01-26 19:35:00,26.7,17.6,30.36,ESE,116,6.1,8.0,68,0.00,,,0.00,WeatherDisplay:10.37,2013-01-27 01:35:00,
2013-01-26 19:40:00,26.7,17.9,30.37,ESE,105,4.7,5.8,69,0.00,,,0.00,WeatherDisplay:10.37,2013-01-27 01:40:00,
2013-01-26 19:45:00,26.6,17.5,30.36,ESE,111,6.2,7.0,68,0.00,,,0.00,WeatherDisplay:10.37,2013-01-27 01:45:00,
2013-01-26 19:50:00,26.5,17.4,30.37,ESE,120,5.8,6.9,68,0.00,,,0.00,WeatherDisplay:10.37,2013-01-27 01:50:00,
2013-01-26 19:55:00,26.6,17.8,30.37,ESE,118,5.1,5.8,69,0.00,,,0.00,WeatherDisplay:10.37,2013-01-27 01:55:00,
2013-01-26 20:00:00,26.6,17.1,30.36,ESE,108,6.1,8.1,67,0.00,,,0.00,WeatherDisplay:10.37,2013-01-27 02:00:00,
2013-01-26 20:05:00,26.7,17.6,30.36,ESE,120,7.4,9.2,68,0.00,,,0.00,WeatherDisplay:10.37,2013-01-27 02:05:00,
2013-01-26 20:10:00,26.6,17.1,30.36,ESE,117,6.4,8.1,67,0.00,,,0.00,WeatherDisplay:10.37,2013-01-27 02:10:00,
2013-01-26 20:15:00,26.6,17.1,30.36,ESE,115,6.5,8.1,67,0.00,,,0.00,WeatherDisplay:10.37,2013-01-27 02:15:00,
2013-01-26 20:20:00,26.6,17.1,30.35,ESE,121,9.5,11.5,67,0.00,,,0.00,WeatherDisplay:10.37,2013-01-27 02:20:00,
2013-01-26 20:25:00,26.5,16.7,30.35,ESE,113,8.6,10.4,66,0.00,,,0.00,WeatherDisplay:10.37,2013-01-27 02:25:00,
2013-01-26 20:30:00,26.5,17.0,30.35,ESE,112,8.0,10.4,67,0.00,,,0.00,WeatherDisplay:10.37,2013-01-27 02:30:00,
2013-01-26 20:35:00,26.5,17.0,30.35,ESE,116,8.9,12.0,67,0.00,,,0.00,WeatherDisplay:10.37,2013-01-27 02:35:00,
2013-01-26 20:41:00,26.6,17.5,30.35,ESE,111,7.8,9.2,68,0.00,,,0.00,WeatherDisplay:10.37,2013-01-27 02:41:00,
2013-01-26 20:46:00,26.5,17.4,30.35,ESE,119,8.1,11.5,68,0.00,,,0.00,WeatherDisplay:10.37,2013-01-27 02:46:00,
2013-01-26 20:51:00,26.6,17.1,30.35,ESE,107,8.8,10.4,67,0.00,,,0.00,WeatherDisplay:10.37,2013-01-27 02:51:00,
2013-01-26 20:56:00,26.7,17.2,30.35,ESE,120,9.0,11.5,67,0.00,,,0.00,WeatherDisplay:10.37,2013-01-27 02:56:00,
2013-01-26 21:01:00,26.7,17.2,30.34,East,92,8.8,11.5,67,0.00,,,0.00,WeatherDisplay:10.37,2013-01-27 03:01:00,
2013-01-26 21:06:00,26.7,16.9,30.34,ESE,121,7.8,10.4,66,0.00,,,0.00,WeatherDisplay:10.37,2013-01-27 03:06:00,
2013-01-26 21:11:00,26.7,17.2,30.34,ESE,112,8.0,10.4,67,0.00,,,0.00,WeatherDisplay:10.37,2013-01-27 03:11:00,
2013-01-26 21:16:00,26.7,16.9,30.34,ESE,114,9.3,11.5,66,0.00,,,0.00,WeatherDisplay:10.37,2013-01-27 03:16:00,
2013-01-26 21:21:00,26.7,16.5,30.34,ESE,121,10.0,11.5,65,0.00,,,0.00,WeatherDisplay:10.37,2013-01-27 03:21:00,
2013-01-26 21:26:00,26.7,16.9,30.34,ESE,110,9.4,11.5,66,0.00,,,0.00,WeatherDisplay:10.37,2013-01-27 03:26:00,
2013-01-26 21:31:00,26.7,16.9,30.34,ESE,113,8.1,11.0,66,0.00,,,0.00,WeatherDisplay:10.37,2013-01-27 03:31:00,
2013-01-26 21:36:00,26.7,16.9,30.34,ESE,112,8.8,11.5,66,0.00,,,0.00,WeatherDisplay:10.37,2013-01-27 03:36:00,
2013-01-26 21:41:00,26.6,16.4,30.34,SE,128,9.5,11.5,65,0.00,,,0.00,WeatherDisplay:10.37,2013-01-27 03:41:00,
2013-01-26 21:46:00,26.7,16.5,30.34,ESE,121,8.1,11.5,65,0.00,,,0.00,WeatherDisplay:10.37,2013-01-27 03:46:00,
2013-01-26 21:51:00,26.7,16.5,30.34,SE,127,9.6,11.5,65,0.00,,,0.00,WeatherDisplay:10.37,2013-01-27 03:51:00,
2013-01-26 21:56:00,26.7,16.9,30.35,SE,135,8.3,10.4,66,0.00,,,0.00,WeatherDisplay:10.37,2013-01-27 03:56:00,
2013-01-26 22:01:00,26.6,17.1,30.35,SE,126,6.5,9.0,67,0.00,,,0.00,WeatherDisplay:10.37,2013-01-27 04:01:00,
2013-01-26 22:06:00,26.6,17.1,30.35,SE,126,6.9,9.2,67,0.00,,,0.00,WeatherDisplay:10.37,2013-01-27 04:06:00,
2013-01-26 22:11:00,26.6,17.1,30.35,SE,134,6.1,8.1,67,0.00,,,0.00,WeatherDisplay:10.37,2013-01-27 04:11:00,
2013-01-26 22:16:00,26.6,17.1,30.35,ESE,123,5.2,6.9,67,0.00,,,0.00,WeatherDisplay:10.37,2013-01-27 04:16:00,
2013-01-26 22:21:00,26.6,17.5,30.36,ESE,123,4.6,5.8,68,0.00,,,0.00,WeatherDisplay:10.37,2013-01-27 04:21:00,
2013-01-26 22:26:00,26.6,17.1,30.36,SE,133,4.1,4.1,67,0.00,,,0.00,WeatherDisplay:10.37,2013-01-27 04:26:00,
2013-01-26 22:31:00,26.6,17.5,30.36,ESE,116,3.8,4.6,68,0.00,,,0.00,WeatherDisplay:10.37,2013-01-27 04:31:00,
2013-01-26 22:36:00,26.7,17.6,30.36,SE,132,4.7,5.8,68,0.00,,,0.00,WeatherDisplay:10.37,2013-01-27 04:36:00,
2013-01-26 22:41:00,26.8,17.3,30.36,ESE,122,6.7,7.0,67,0.00,,,0.00,WeatherDisplay:10.37,2013-01-27 04:41:00,
2013-01-26 22:46:00,26.9,17.0,30.36,ESE,123,6.7,9.2,66,0.00,,,0.00,WeatherDisplay:10.37,2013-01-27 04:46:00,
2013-01-26 22:51:00,27.1,16.9,30.36,SE,139,9.2,10.4,65,0.00,,,0.00,WeatherDisplay:10.37,2013-01-27 04:51:00,
2013-01-26 22:56:00,27.2,16.6,30.36,SE,130,9.8,11.5,64,0.00,,,0.00,WeatherDisplay:10.37,2013-01-27 04:56:00,
2013-01-26 23:00:00,27.2,17.0,30.36,SE,128,8.3,11.0,65,0.00,,,0.00,WeatherDisplay:10.37,2013-01-27 05:00:00,
2013-01-26 23:02:00,27.2,16.6,30.35,ESE,122,9.8,11.5,64,0.00,,,0.00,WeatherDisplay:10.37,2013-01-27 05:02:00,
2013-01-26 23:03:00,27.2,16.6,30.35,SE,128,10.0,11.5,64,0.00,,,0.00,WeatherDisplay:10.37,2013-01-27 05:03:00,
2013-01-26 23:08:00,27.2,17.0,30.35,ESE,122,8.7,10.4,65,0.00,,,0.00,WeatherDisplay:10.37,2013-01-27 05:08:00,
2013-01-26 23:13:00,27.1,16.9,30.35,SE,136,7.4,9.2,65,0.00,,,0.00,WeatherDisplay:10.37,2013-01-27 05:13:00,
2013-01-26 23:18:00,27.2,17.0,30.35,ESE,120,7.1,10.4,65,0.00,,,0.00,WeatherDisplay:10.37,2013-01-27 05:18:00,
2013-01-26 23:23:00,27.2,17.3,30.35,SE,128,7.7,11.5,66,0.00,,,0.00,WeatherDisplay:10.37,2013-01-27 05:23:00,
2013-01-26 23:28:00,27.3,17.4,30.36,ESE,118,7.9,9.2,66,0.00,,,0.00,WeatherDisplay:10.37,2013-01-27 05:28:00,
2013-01-26 23:33:00,27.3,17.4,30.35,SE,136,8.7,10.4,66,0.00,,,0.00,WeatherDisplay:10.37,2013-01-27 05:33:00,
2013-01-26 23:38:00,27.2,17.3,30.35,SE,135,9.3,11.5,66,0.00,,,0.00,WeatherDisplay:10.37,2013-01-27 05:38:00,
2013-01-26 23:43:00,27.1,17.2,30.35,SE,126,7.0,9.2,66,0.00,,,0.00,WeatherDisplay:10.37,2013-01-27 05:43:00,
2013-01-26 23:48:00,27.1,17.2,30.35,SE,142,7.7,10.4,66,0.00,,,0.00,WeatherDisplay:10.37,2013-01-27 05:48:00,
2013-01-26 23:53:00,27.1,17.2,30.35,SSE,148,7.4,9.2,66,0.00,,,0.00,WeatherDisplay:10.37,2013-01-27 05:53:00,
2013-01-26 23:58:00,27.0,17.5,30.35,SSE,148,6.4,8.1,67,0.00,,,0.00,WeatherDisplay:10.37,2013-01-27 05:58:00,